sensor_id;sensor_type;location;lat;lon;timestamp;pressure;altitude;pressure_sealevel;temperature;humidity
64292;BME280;50628;51.008;13.658;2023-05-02T00:02:31;99532.88;;;13.02;100.00
64292;BME280;50628;51.008;13.658;2023-05-02T00:07:35;99542.03;;;13.15;100.00
64292;BME280;50628;51.008;13.658;2023-05-02T00:12:37;99538.91;;;13.02;100.00
64292;BME280;50628;51.008;13.658;2023-05-02T00:17:40;99548.44;;;13.03;100.00
64292;BME280;50628;51.008;13.658;2023-05-02T00:22:44;99547.06;;;12.99;100.00
64292;BME280;50628;51.008;13.658;2023-05-02T00:27:46;99548.75;;;12.90;100.00
64292;BME280;50628;51.008;13.658;2023-05-02T00:32:50;99545.88;;;12.84;100.00
64292;BME280;50628;51.008;13.658;2023-05-02T00:37:54;99545.97;;;12.92;100.00
64292;BME280;50628;51.008;13.658;2023-05-02T00:42:56;99559.84;;;12.92;100.00
64292;BME280;50628;51.008;13.658;2023-05-02T00:47:58;99556.78;;;13.07;100.00
64292;BME280;50628;51.008;13.658;2023-05-02T00:53:02;99563.25;;;13.03;100.00
64292;BME280;50628;51.008;13.658;2023-05-02T00:58:07;99558.31;;;12.99;100.00
64292;BME280;50628;51.008;13.658;2023-05-02T01:03:16;99551.97;;;13.02;100.00
64292;BME280;50628;51.008;13.658;2023-05-02T01:08:33;99555.03;;;12.97;100.00
64292;BME280;50628;51.008;13.658;2023-05-02T01:13:37;99554.53;;;12.84;100.00
64292;BME280;50628;51.008;13.658;2023-05-02T01:18:41;99545.28;;;12.90;100.00
64292;BME280;50628;51.008;13.658;2023-05-02T01:23:59;99544.19;;;12.92;100.00
64292;BME280;50628;51.008;13.658;2023-05-02T01:29:06;99541.03;;;12.89;100.00
64292;BME280;50628;51.008;13.658;2023-05-02T01:34:09;99545.28;;;12.90;100.00
64292;BME280;50628;51.008;13.658;2023-05-02T01:39:13;99550.91;;;12.95;100.00
64292;BME280;50628;51.008;13.658;2023-05-02T01:44:19;99545.69;;;12.95;100.00
64292;BME280;50628;51.008;13.658;2023-05-02T01:49:23;99549.28;;;12.94;100.00
64292;BME280;50628;51.008;13.658;2023-05-02T01:54:26;99547.78;;;12.91;100.00
64292;BME280;50628;51.008;13.658;2023-05-02T01:59:32;99543.38;;;12.92;100.00
64292;BME280;50628;51.008;13.658;2023-05-02T02:04:35;99548.47;;;12.93;100.00
64292;BME280;50628;51.008;13.658;2023-05-02T02:09:38;99554.78;;;12.91;100.00
64292;BME280;50628;51.008;13.658;2023-05-02T02:14:47;99547.91;;;12.90;100.00
64292;BME280;50628;51.008;13.658;2023-05-02T02:19:52;99552.06;;;12.83;100.00
64292;BME280;50628;51.008;13.658;2023-05-02T02:24:56;99552.91;;;12.83;100.00
64292;BME280;50628;51.008;13.658;2023-05-02T02:30:01;99554.13;;;12.79;100.00
64292;BME280;50628;51.008;13.658;2023-05-02T02:35:04;99563.47;;;12.82;100.00
64292;BME280;50628;51.008;13.658;2023-05-02T02:40:11;99575.72;;;12.81;100.00
64292;BME280;50628;51.008;13.658;2023-05-02T02:45:26;99580.94;;;12.81;100.00
64292;BME280;50628;51.008;13.658;2023-05-02T02:50:35;99586.16;;;12.81;100.00
64292;BME280;50628;51.008;13.658;2023-05-02T02:55:43;99606.47;;;12.87;100.00
64292;BME280;50628;51.008;13.658;2023-05-02T03:00:48;99607.59;;;12.85;100.00
64292;BME280;50628;51.008;13.658;2023-05-02T03:05:50;99602.34;;;12.85;100.00
64292;BME280;50628;51.008;13.658;2023-05-02T03:10:52;99610.88;;;12.87;100.00
64292;BME280;50628;51.008;13.658;2023-05-02T03:16:28;99618.03;;;12.85;100.00
64292;BME280;50628;51.008;13.658;2023-05-02T03:21:32;99620.66;;;12.85;100.00
64292;BME280;50628;51.008;13.658;2023-05-02T03:26:41;99621.66;;;12.64;100.00
64292;BME280;50628;51.008;13.658;2023-05-02T03:31:47;99637.19;;;12.66;100.00
64292;BME280;50628;51.008;13.658;2023-05-02T03:36:49;99648.88;;;12.52;100.00
64292;BME280;50628;51.008;13.658;2023-05-02T03:41:52;99638.59;;;12.50;100.00
64292;BME280;50628;51.008;13.658;2023-05-02T03:46:58;99644.34;;;12.34;100.00
64292;BME280;50628;51.008;13.658;2023-05-02T03:52:01;99648.31;;;12.29;100.00
64292;BME280;50628;51.008;13.658;2023-05-02T03:57:07;99657.94;;;12.28;100.00
64292;BME280;50628;51.008;13.658;2023-05-02T04:02:11;99668.25;;;12.20;100.00
64292;BME280;50628;51.008;13.658;2023-05-02T04:07:17;99668.78;;;12.24;100.00
64292;BME280;50628;51.008;13.658;2023-05-02T04:12:22;99677.16;;;12.18;100.00
64292;BME280;50628;51.008;13.658;2023-05-02T04:17:27;99681.28;;;12.20;100.00
64292;BME280;50628;51.008;13.658;2023-05-02T04:22:30;99697.19;;;12.07;100.00
64292;BME280;50628;51.008;13.658;2023-05-02T04:27:36;99712.03;;;12.17;100.00
64292;BME280;50628;51.008;13.658;2023-05-02T04:32:42;99714.81;;;12.25;100.00
64292;BME280;50628;51.008;13.658;2023-05-02T04:37:45;99721.91;;;12.13;100.00
64292;BME280;50628;51.008;13.658;2023-05-02T04:42:49;99731.38;;;12.14;100.00
64292;BME280;50628;51.008;13.658;2023-05-02T04:47:56;99743.34;;;12.17;100.00
64292;BME280;50628;51.008;13.658;2023-05-02T04:52:58;99764.78;;;12.20;100.00
64292;BME280;50628;51.008;13.658;2023-05-02T04:58:00;99761.72;;;12.05;100.00
64292;BME280;50628;51.008;13.658;2023-05-02T05:03:05;99777.69;;;12.12;100.00
64292;BME280;50628;51.008;13.658;2023-05-02T05:08:07;99785.00;;;12.28;100.00
64292;BME280;50628;51.008;13.658;2023-05-02T05:13:11;99784.44;;;12.34;100.00
64292;BME280;50628;51.008;13.658;2023-05-02T05:18:16;99796.88;;;12.11;100.00
64292;BME280;50628;51.008;13.658;2023-05-02T05:23:18;99805.03;;;12.18;100.00
64292;BME280;50628;51.008;13.658;2023-05-02T05:28:20;99816.41;;;12.17;100.00
64292;BME280;50628;51.008;13.658;2023-05-02T05:33:24;99818.19;;;12.16;100.00
64292;BME280;50628;51.008;13.658;2023-05-02T05:38:26;99818.09;;;12.27;100.00
64292;BME280;50628;51.008;13.658;2023-05-02T05:43:28;99825.22;;;12.25;100.00
64292;BME280;50628;51.008;13.658;2023-05-02T05:48:34;99825.34;;;12.24;100.00
64292;BME280;50628;51.008;13.658;2023-05-02T05:53:36;99848.09;;;12.43;100.00
64292;BME280;50628;51.008;13.658;2023-05-02T05:58:40;99846.31;;;12.43;100.00
64292;BME280;50628;51.008;13.658;2023-05-02T06:03:47;99856.63;;;12.45;100.00
64292;BME280;50628;51.008;13.658;2023-05-02T06:08:50;99879.03;;;12.47;100.00
64292;BME280;50628;51.008;13.658;2023-05-02T06:13:53;99878.97;;;12.78;100.00
64292;BME280;50628;51.008;13.658;2023-05-02T06:18:57;99887.13;;;12.54;100.00
64292;BME280;50628;51.008;13.658;2023-05-02T06:23:59;99892.78;;;12.59;100.00
64292;BME280;50628;51.008;13.658;2023-05-02T06:29:01;99893.28;;;12.84;100.00
64292;BME280;50628;51.008;13.658;2023-05-02T06:34:04;99910.75;;;12.93;100.00
64292;BME280;50628;51.008;13.658;2023-05-02T06:39:06;99920.59;;;12.80;100.00
64292;BME280;50628;51.008;13.658;2023-05-02T06:44:08;99935.31;;;12.71;100.00
64292;BME280;50628;51.008;13.658;2023-05-02T06:49:11;99934.50;;;12.80;100.00
64292;BME280;50628;51.008;13.658;2023-05-02T06:54:13;99946.78;;;12.99;100.00
64292;BME280;50628;51.008;13.658;2023-05-02T06:59:15;99947.56;;;12.90;100.00
64292;BME280;50628;51.008;13.658;2023-05-02T07:04:18;99954.31;;;12.83;100.00
64292;BME280;50628;51.008;13.658;2023-05-02T07:09:20;99964.81;;;13.12;100.00
64292;BME280;50628;51.008;13.658;2023-05-02T07:14:22;99963.56;;;12.96;100.00
64292;BME280;50628;51.008;13.658;2023-05-02T07:19:25;99972.38;;;13.05;100.00
64292;BME280;50628;51.008;13.658;2023-05-02T07:24:27;99986.56;;;13.12;100.00
64292;BME280;50628;51.008;13.658;2023-05-02T07:29:29;99993.25;;;12.95;100.00
64292;BME280;50628;51.008;13.658;2023-05-02T07:34:32;99995.34;;;13.02;100.00
64292;BME280;50628;51.008;13.658;2023-05-02T07:39:34;100012.88;;;12.90;100.00
64292;BME280;50628;51.008;13.658;2023-05-02T07:44:36;100020.06;;;12.88;100.00
64292;BME280;50628;51.008;13.658;2023-05-02T07:49:39;100018.38;;;12.87;100.00
64292;BME280;50628;51.008;13.658;2023-05-02T07:54:41;100029.56;;;12.98;100.00
64292;BME280;50628;51.008;13.658;2023-05-02T07:59:43;100031.25;;;13.09;100.00
64292;BME280;50628;51.008;13.658;2023-05-02T08:04:47;100041.84;;;13.48;100.00
64292;BME280;50628;51.008;13.658;2023-05-02T08:09:49;100055.78;;;13.18;100.00
64292;BME280;50628;51.008;13.658;2023-05-02T08:14:50;100054.53;;;13.22;100.00
64292;BME280;50628;51.008;13.658;2023-05-02T08:19:54;100061.53;;;13.62;100.00
64292;BME280;50628;51.008;13.658;2023-05-02T08:24:55;100060.31;;;13.56;100.00
64292;BME280;50628;51.008;13.658;2023-05-02T08:29:57;100064.41;;;13.49;100.00
64292;BME280;50628;51.008;13.658;2023-05-02T08:35:01;100074.75;;;13.70;100.00
64292;BME280;50628;51.008;13.658;2023-05-02T08:40:03;100078.47;;;13.58;100.00
64292;BME280;50628;51.008;13.658;2023-05-02T08:45:07;100090.00;;;13.46;100.00
64292;BME280;50628;51.008;13.658;2023-05-02T08:50:11;100097.22;;;13.73;100.00
64292;BME280;50628;51.008;13.658;2023-05-02T08:55:13;100100.13;;;13.89;100.00
64292;BME280;50628;51.008;13.658;2023-05-02T09:00:16;100103.53;;;13.70;100.00
64292;BME280;50628;51.008;13.658;2023-05-02T09:05:22;100114.03;;;13.80;100.00
64292;BME280;50628;51.008;13.658;2023-05-02T09:10:27;100125.47;;;14.08;100.00
64292;BME280;50628;51.008;13.658;2023-05-02T09:15:29;100121.34;;;13.86;100.00
64292;BME280;50628;51.008;13.658;2023-05-02T09:20:39;100130.31;;;14.03;100.00
64292;BME280;50628;51.008;13.658;2023-05-02T09:25:41;100137.28;;;13.73;100.00
64292;BME280;50628;51.008;13.658;2023-05-02T09:30:43;100142.69;;;13.81;100.00
64292;BME280;50628;51.008;13.658;2023-05-02T09:35:52;100146.94;;;13.82;100.00
64292;BME280;50628;51.008;13.658;2023-05-02T09:40:54;100140.50;;;14.16;100.00
64292;BME280;50628;51.008;13.658;2023-05-02T09:45:57;100138.19;;;14.52;100.00
64292;BME280;50628;51.008;13.658;2023-05-02T09:51:01;100136.19;;;14.92;100.00
64292;BME280;50628;51.008;13.658;2023-05-02T09:56:05;100147.41;;;14.46;100.00
64292;BME280;50628;51.008;13.658;2023-05-02T10:01:07;100148.53;;;14.53;100.00
64292;BME280;50628;51.008;13.658;2023-05-02T10:06:11;100144.47;;;14.88;100.00
64292;BME280;50628;51.008;13.658;2023-05-02T10:11:13;100154.28;;;14.86;100.00
64292;BME280;50628;51.008;13.658;2023-05-02T10:16:21;100159.25;;;14.40;100.00
64292;BME280;50628;51.008;13.658;2023-05-02T10:21:28;100163.72;;;14.59;100.00
64292;BME280;50628;51.008;13.658;2023-05-02T10:26:33;100170.31;;;14.63;100.00
64292;BME280;50628;51.008;13.658;2023-05-02T10:31:36;100169.69;;;15.08;100.00
64292;BME280;50628;51.008;13.658;2023-05-02T10:36:41;100169.91;;;14.58;100.00
64292;BME280;50628;51.008;13.658;2023-05-02T10:41:43;100177.22;;;14.64;100.00
64292;BME280;50628;51.008;13.658;2023-05-02T10:46:46;100167.56;;;14.55;100.00
64292;BME280;50628;51.008;13.658;2023-05-02T10:51:49;100184.09;;;14.56;100.00
64292;BME280;50628;51.008;13.658;2023-05-02T10:57:04;100186.16;;;14.71;100.00
64292;BME280;50628;51.008;13.658;2023-05-02T11:08:30;100185.06;;;14.74;100.00
64292;BME280;50628;51.008;13.658;2023-05-02T11:13:48;100181.97;;;14.98;100.00
64292;BME280;50628;51.008;13.658;2023-05-02T11:18:59;100177.91;;;15.61;100.00
64292;BME280;50628;51.008;13.658;2023-05-02T11:24:40;100181.81;;;15.47;100.00
64292;BME280;50628;51.008;13.658;2023-05-02T11:29:51;100179.31;;;15.55;100.00
64292;BME280;50628;51.008;13.658;2023-05-02T11:34:53;100183.25;;;15.96;99.55
64292;BME280;50628;51.008;13.658;2023-05-02T11:40:10;100188.72;;;16.31;100.00
64292;BME280;50628;51.008;13.658;2023-05-02T11:45:12;100187.88;;;16.84;96.35
64292;BME280;50628;51.008;13.658;2023-05-02T11:50:15;100178.94;;;17.03;95.68
64292;BME280;50628;51.008;13.658;2023-05-02T11:55:18;100192.84;;;16.51;95.80
64292;BME280;50628;51.008;13.658;2023-05-02T12:00:26;100193.97;;;16.13;95.53
64292;BME280;50628;51.008;13.658;2023-05-02T12:05:28;100190.34;;;16.50;93.92
64292;BME280;50628;51.008;13.658;2023-05-02T12:10:36;100194.31;;;17.42;87.29
64292;BME280;50628;51.008;13.658;2023-05-02T12:15:38;100186.44;;;17.50;82.41
64292;BME280;50628;51.008;13.658;2023-05-02T12:20:40;100200.44;;;17.50;82.29
64292;BME280;50628;51.008;13.658;2023-05-02T12:25:44;100197.44;;;17.45;82.05
64292;BME280;50628;51.008;13.658;2023-05-02T12:30:47;100189.22;;;16.34;86.27
64292;BME280;50628;51.008;13.658;2023-05-02T12:35:49;100189.97;;;16.80;85.07
64292;BME280;50628;51.008;13.658;2023-05-02T12:40:54;100189.41;;;17.47;84.94
64292;BME280;50628;51.008;13.658;2023-05-02T12:46:08;100191.31;;;16.66;85.76
64292;BME280;50628;51.008;13.658;2023-05-02T12:51:20;100196.22;;;17.32;91.76
64292;BME280;50628;51.008;13.658;2023-05-02T12:56:24;100202.94;;;17.00;95.46
64292;BME280;50628;51.008;13.658;2023-05-02T13:01:31;100203.72;;;17.52;90.04
64292;BME280;50628;51.008;13.658;2023-05-02T13:06:33;100197.63;;;16.74;91.23
64292;BME280;50628;51.008;13.658;2023-05-02T13:11:38;100199.72;;;17.74;83.39
64292;BME280;50628;51.008;13.658;2023-05-02T13:16:40;100193.84;;;17.89;85.08
64292;BME280;50628;51.008;13.658;2023-05-02T13:21:42;100198.28;;;17.20;80.60
64292;BME280;50628;51.008;13.658;2023-05-02T13:26:45;100210.91;;;16.54;82.99
64292;BME280;50628;51.008;13.658;2023-05-02T13:31:47;100199.28;;;17.19;83.79
64292;BME280;50628;51.008;13.658;2023-05-02T13:36:49;100202.91;;;17.26;80.70
64292;BME280;50628;51.008;13.658;2023-05-02T13:41:52;100211.84;;;17.33;80.04
64292;BME280;50628;51.008;13.658;2023-05-02T13:46:54;100209.13;;;16.55;82.68
64292;BME280;50628;51.008;13.658;2023-05-02T13:51:56;100207.22;;;16.83;85.19
64292;BME280;50628;51.008;13.658;2023-05-02T13:56:59;100204.28;;;16.14;89.84
64292;BME280;50628;51.008;13.658;2023-05-02T14:02:02;100208.88;;;16.30;93.72
64292;BME280;50628;51.008;13.658;2023-05-02T14:07:04;100212.13;;;16.60;90.51
64292;BME280;50628;51.008;13.658;2023-05-02T14:12:15;100211.16;;;16.43;92.91
64292;BME280;50628;51.008;13.658;2023-05-02T14:17:17;100216.44;;;17.65;88.26
64292;BME280;50628;51.008;13.658;2023-05-02T14:22:19;100207.38;;;18.86;79.61
64292;BME280;50628;51.008;13.658;2023-05-02T14:27:26;100206.47;;;18.44;77.14
64292;BME280;50628;51.008;13.658;2023-05-02T14:32:33;100206.81;;;18.41;77.21
64292;BME280;50628;51.008;13.658;2023-05-02T14:37:38;100207.47;;;18.43;76.77
64292;BME280;50628;51.008;13.658;2023-05-02T14:42:42;100224.88;;;16.37;90.04
64292;BME280;50628;51.008;13.658;2023-05-02T14:47:44;100227.84;;;15.69;100.00
64292;BME280;50628;51.008;13.658;2023-05-02T14:52:46;100248.47;;;14.58;100.00
64292;BME280;50628;51.008;13.658;2023-05-02T14:57:49;100282.50;;;13.98;100.00
64292;BME280;50628;51.008;13.658;2023-05-02T15:03:00;100298.44;;;13.34;100.00
64292;BME280;50628;51.008;13.658;2023-05-02T15:08:02;100296.38;;;13.37;100.00
64292;BME280;50628;51.008;13.658;2023-05-02T15:13:05;100302.41;;;13.28;100.00
64292;BME280;50628;51.008;13.658;2023-05-02T15:18:08;100302.25;;;13.51;100.00
64292;BME280;50628;51.008;13.658;2023-05-02T15:23:10;100310.03;;;13.41;100.00
64292;BME280;50628;51.008;13.658;2023-05-02T15:28:13;100316.34;;;13.38;100.00
64292;BME280;50628;51.008;13.658;2023-05-02T15:33:15;100325.44;;;13.86;100.00
64292;BME280;50628;51.008;13.658;2023-05-02T15:38:17;100331.09;;;13.91;100.00
64292;BME280;50628;51.008;13.658;2023-05-02T15:43:20;100332.19;;;13.89;100.00
64292;BME280;50628;51.008;13.658;2023-05-02T15:48:23;100343.69;;;13.55;100.00
64292;BME280;50628;51.008;13.658;2023-05-02T15:53:25;100343.81;;;13.33;100.00
64292;BME280;50628;51.008;13.658;2023-05-02T15:58:28;100352.09;;;13.38;100.00
64292;BME280;50628;51.008;13.658;2023-05-02T16:03:30;100355.75;;;13.47;100.00
64292;BME280;50628;51.008;13.658;2023-05-02T16:08:33;100363.16;;;13.41;100.00
64292;BME280;50628;51.008;13.658;2023-05-02T16:13:36;100366.81;;;13.18;100.00
64292;BME280;50628;51.008;13.658;2023-05-02T16:18:41;100379.75;;;13.73;100.00
64292;BME280;50628;51.008;13.658;2023-05-02T16:23:43;100374.06;;;13.14;100.00
64292;BME280;50628;51.008;13.658;2023-05-02T16:28:46;100383.22;;;13.09;100.00
64292;BME280;50628;51.008;13.658;2023-05-02T16:33:54;100390.16;;;12.98;100.00
64292;BME280;50628;51.008;13.658;2023-05-02T16:38:57;100387.34;;;12.90;100.00
64292;BME280;50628;51.008;13.658;2023-05-02T16:44:06;100394.72;;;13.29;100.00
64292;BME280;50628;51.008;13.658;2023-05-02T16:49:12;100398.56;;;13.02;100.00
64292;BME280;50628;51.008;13.658;2023-05-02T16:54:14;100409.56;;;12.62;100.00
64292;BME280;50628;51.008;13.658;2023-05-02T16:59:17;100413.13;;;12.61;100.00
64292;BME280;50628;51.008;13.658;2023-05-02T17:04:28;100423.44;;;12.74;100.00
64292;BME280;50628;51.008;13.658;2023-05-02T17:09:33;100430.56;;;12.83;100.00
64292;BME280;50628;51.008;13.658;2023-05-02T17:14:41;100433.41;;;12.91;100.00
64292;BME280;50628;51.008;13.658;2023-05-02T17:19:42;100429.44;;;13.08;100.00
64292;BME280;50628;51.008;13.658;2023-05-02T17:24:50;100444.97;;;13.21;100.00
64292;BME280;50628;51.008;13.658;2023-05-02T17:29:55;100452.47;;;13.14;100.00
64292;BME280;50628;51.008;13.658;2023-05-02T17:35:12;100455.38;;;12.89;100.00
64292;BME280;50628;51.008;13.658;2023-05-02T17:40:22;100468.19;;;13.03;100.00
64292;BME280;50628;51.008;13.658;2023-05-02T17:45:40;100466.91;;;12.64;100.00
64292;BME280;50628;51.008;13.658;2023-05-02T17:50:44;100478.06;;;12.77;100.00
64292;BME280;50628;51.008;13.658;2023-05-02T17:55:53;100488.03;;;12.83;100.00
64292;BME280;50628;51.008;13.658;2023-05-02T18:01:27;100495.03;;;12.71;100.00
64292;BME280;50628;51.008;13.658;2023-05-02T18:06:33;100495.72;;;12.17;100.00
64292;BME280;50628;51.008;13.658;2023-05-02T18:11:37;100504.03;;;12.33;100.00
64292;BME280;50628;51.008;13.658;2023-05-02T18:17:27;100512.53;;;12.13;100.00
64292;BME280;50628;51.008;13.658;2023-05-02T18:23:00;100520.75;;;12.20;100.00
64292;BME280;50628;51.008;13.658;2023-05-02T18:28:01;100519.31;;;12.16;100.00
64292;BME280;50628;51.008;13.658;2023-05-02T18:33:22;100535.19;;;12.12;100.00
64292;BME280;50628;51.008;13.658;2023-05-02T18:38:40;100538.88;;;12.10;100.00
64292;BME280;50628;51.008;13.658;2023-05-02T18:44:01;100543.94;;;12.11;100.00
64292;BME280;50628;51.008;13.658;2023-05-02T18:49:21;100561.06;;;11.91;100.00
64292;BME280;50628;51.008;13.658;2023-05-02T18:54:27;100562.06;;;11.78;100.00
64292;BME280;50628;51.008;13.658;2023-05-02T18:59:41;100569.81;;;11.66;100.00
64292;BME280;50628;51.008;13.658;2023-05-02T19:04:57;100560.84;;;11.70;100.00
64292;BME280;50628;51.008;13.658;2023-05-02T19:10:14;100563.38;;;11.83;100.00
64292;BME280;50628;51.008;13.658;2023-05-02T19:15:22;100558.78;;;11.63;100.00
64292;BME280;50628;51.008;13.658;2023-05-02T19:20:37;100576.75;;;11.79;100.00
64292;BME280;50628;51.008;13.658;2023-05-02T19:31:32;100588.97;;;11.78;100.00
64292;BME280;50628;51.008;13.658;2023-05-02T19:36:44;100587.06;;;11.56;100.00
64292;BME280;50628;51.008;13.658;2023-05-02T19:42:04;100584.72;;;11.40;100.00
64292;BME280;50628;51.008;13.658;2023-05-02T19:47:30;100599.88;;;11.10;100.00
64292;BME280;50628;51.008;13.658;2023-05-02T19:52:49;100606.03;;;11.09;100.00
64292;BME280;50628;51.008;13.658;2023-05-02T19:57:57;100605.09;;;10.97;100.00
64292;BME280;50628;51.008;13.658;2023-05-02T20:03:07;100616.78;;;10.91;100.00
64292;BME280;50628;51.008;13.658;2023-05-02T20:08:10;100617.72;;;10.90;100.00
64292;BME280;50628;51.008;13.658;2023-05-02T20:13:23;100623.94;;;10.62;100.00
64292;BME280;50628;51.008;13.658;2023-05-02T20:18:25;100631.97;;;10.59;100.00
64292;BME280;50628;51.008;13.658;2023-05-02T20:23:28;100638.72;;;10.49;100.00
64292;BME280;50628;51.008;13.658;2023-05-02T20:28:30;100650.47;;;10.42;100.00
64292;BME280;50628;51.008;13.658;2023-05-02T20:33:31;100646.09;;;10.42;100.00
64292;BME280;50628;51.008;13.658;2023-05-02T20:38:35;100647.94;;;10.40;100.00
64292;BME280;50628;51.008;13.658;2023-05-02T20:43:41;100647.84;;;10.42;100.00
64292;BME280;50628;51.008;13.658;2023-05-02T20:48:45;100653.38;;;10.50;100.00
64292;BME280;50628;51.008;13.658;2023-05-02T20:53:48;100653.31;;;10.51;100.00
64292;BME280;50628;51.008;13.658;2023-05-02T20:58:50;100660.69;;;10.57;100.00
64292;BME280;50628;51.008;13.658;2023-05-02T21:03:52;100659.25;;;10.53;100.00
64292;BME280;50628;51.008;13.658;2023-05-02T21:08:57;100657.34;;;10.55;100.00
64292;BME280;50628;51.008;13.658;2023-05-02T21:13:58;100663.44;;;10.69;100.00
64292;BME280;50628;51.008;13.658;2023-05-02T21:19:00;100655.72;;;10.67;100.00
64292;BME280;50628;51.008;13.658;2023-05-02T21:24:05;100670.44;;;10.41;100.00
64292;BME280;50628;51.008;13.658;2023-05-02T21:29:07;100669.84;;;10.23;100.00
64292;BME280;50628;51.008;13.658;2023-05-02T21:34:10;100674.75;;;10.28;100.00
64292;BME280;50628;51.008;13.658;2023-05-02T21:39:13;100675.22;;;10.34;100.00
64292;BME280;50628;51.008;13.658;2023-05-02T21:44:16;100670.94;;;10.33;100.00
64292;BME280;50628;51.008;13.658;2023-05-02T21:49:18;100675.75;;;10.39;100.00
64292;BME280;50628;51.008;13.658;2023-05-02T21:54:21;100676.59;;;10.53;100.00
64292;BME280;50628;51.008;13.658;2023-05-02T21:59:22;100685.31;;;10.39;100.00
64292;BME280;50628;51.008;13.658;2023-05-02T22:04:24;100682.75;;;10.25;100.00
64292;BME280;50628;51.008;13.658;2023-05-02T22:09:28;100685.06;;;10.29;100.00
64292;BME280;50628;51.008;13.658;2023-05-02T22:14:30;100688.25;;;10.47;100.00
64292;BME280;50628;51.008;13.658;2023-05-02T22:19:32;100690.31;;;10.42;100.00
64292;BME280;50628;51.008;13.658;2023-05-02T22:24:35;100688.56;;;10.43;100.00
64292;BME280;50628;51.008;13.658;2023-05-02T22:29:37;100691.28;;;10.41;100.00
64292;BME280;50628;51.008;13.658;2023-05-02T22:34:39;100702.22;;;10.46;100.00
64292;BME280;50628;51.008;13.658;2023-05-02T22:39:42;100696.50;;;10.54;100.00
64292;BME280;50628;51.008;13.658;2023-05-02T22:44:47;100698.22;;;10.40;100.00
64292;BME280;50628;51.008;13.658;2023-05-02T22:49:50;100683.84;;;10.35;100.00
64292;BME280;50628;51.008;13.658;2023-05-02T22:54:55;100695.31;;;10.45;100.00
64292;BME280;50628;51.008;13.658;2023-05-02T22:59:57;100702.34;;;10.30;100.00
64292;BME280;50628;51.008;13.658;2023-05-02T23:04:59;100705.63;;;10.19;100.00
64292;BME280;50628;51.008;13.658;2023-05-02T23:10:03;100706.53;;;10.33;100.00
64292;BME280;50628;51.008;13.658;2023-05-02T23:15:07;100697.06;;;10.17;100.00
64292;BME280;50628;51.008;13.658;2023-05-02T23:20:09;100700.16;;;10.10;100.00
64292;BME280;50628;51.008;13.658;2023-05-02T23:25:14;100698.97;;;10.01;100.00
64292;BME280;50628;51.008;13.658;2023-05-02T23:30:15;100705.00;;;10.02;100.00
64292;BME280;50628;51.008;13.658;2023-05-02T23:35:17;100703.25;;;10.02;100.00
64292;BME280;50628;51.008;13.658;2023-05-02T23:40:21;100714.09;;;10.09;100.00
64292;BME280;50628;51.008;13.658;2023-05-02T23:45:22;100715.00;;;10.08;100.00
64292;BME280;50628;51.008;13.658;2023-05-02T23:50:24;100717.31;;;9.85;100.00
64292;BME280;50628;51.008;13.658;2023-05-02T23:55:28;100720.09;;;9.82;100.00
